首页
METAR-TAF:

METAR-TAF

机场 :

阿尔汉格尔斯克, 俄罗斯

纬度: 64-30N, 经度: 040-44E, 海拔: 13米

当前天气观测

该预报发布于41分钟前的01:00 UTC
风速8节,风向,在西南之间变化
温度 -10°C
湿度 92%
气压 1013 hPa
能见度10公里或以上
阴天层高于800英尺, 积雨云.
小阵雪

METAR: ULAA 190100Z 17004MPS 100V220 9999 -SHSN OVC008CB M10/M11 Q1013 R08/490340 NOSIG RMK QFE759/1012

时间: 04:41 (01:41 UTC)

预报

该预报发布于2小时和41分钟前的23:00 UTC
预报有效从19日的 00点(UTC)到 19日的 24点(UTC)
风速8节,风向东南,有时为17节阵风
能見度: 3100
多云层高于800英尺
小雪
短暂存在
从 19日的 00点(UTC)到 19日的 03点(UTC)
风速12节,风向东转东南,有时为25节阵风
能見度: 1000
多云层高于500英尺
多云层高于1100英尺, 积雨云.
阵雪, 高吹雪
从 19日的 0300点(UTC)
风速10节,风向南转南东,有时为19节阵风
能見度: 5000
多云层高于1100英尺
小雪
短暂存在
从 19日的 03点(UTC)到 19日的 12点(UTC)
能見度: 3100
多云层高于700英尺
多云层高于1100英尺, 积雨云.
小阵雪
短暂存在
从 19日的 12点(UTC)到 19日的 24点(UTC)
风速12节,风向南转南东,有时为23节阵风
能見度: 2100
多云层高于500英尺
多云层高于1100英尺, 积雨云.
小阵雪

TAF: ULAA 182300Z 1900/1924 14004G09MPS 3100 -SN BKN008 TEMPO 1900/1903 12006G13MPS 1000 SHSN BLSN BKN005 BKN011CB FM190300 15005G10MPS 5000 -SN BKN011 TEMPO 1903/1912 3100 -SHSN BKN007 BKN011CB TEMPO 1912/1924 16006G12MPS 2100 -SHSN BKN005 BKN011CB

超过4000个机场的气象观测和天气预报(METAR&TAF报告)。

可查询的气象台以黄色和红色小点在地图上表示。

将鼠标移到小点上方,可查看气象台名称。

然后点击查看天气观测和预报。

如需切换地图:点击带黑十字的绿色按钮放大地图;点击带横线的绿色按钮缩小地图;或者点击绿色箭头查看邻近地区的地图。


METAR-TAF: